Time;durP1;ratioP1;P1;durP2;ratioP2;P2;SDS_P1;SDS_P2;PMS_P1;PMS_P2;Temp;Humidity;BMP_temperature;BMP_pressure;BME280_temperature;BME280_humidity;BME280_pressure;Samples;Min_cycle;Max_cycle;Signal;HPM_P1;HPM_P2
2021/09/21 00:43:51;;;;;;;1.52;1.52;;;;;;;5.82;91.12;99815.09;6210079;23;20035;-74
2021/09/21 00:46:17;;;;;;;1.52;1.42;;;;;;;5.83;90.87;99823.69;6210352;23;20372;-74
2021/09/21 00:48:45;;;;;;;0.47;0.47;;;;;;;5.82;90.97;99807.31;6211334;23;20412;-73
2021/09/21 00:51:11;;;;;;;0.50;0.50;;;;;;;5.88;90.70;99827.00;6211176;23;20517;-73
2021/09/21 00:53:38;;;;;;;0.50;0.50;;;;;;;5.85;90.97;99817.56;6184603;23;20024;-75
2021/09/21 00:56:04;;;;;;;0.85;0.85;;;;;;;5.86;90.75;99832.22;6159840;23;20044;-76
2021/09/21 00:58:30;;;;;;;1.80;1.70;;;;;;;5.85;90.43;99802.03;6184410;23;20099;-78
2021/09/21 01:00:56;;;;;;;1.15;1.15;;;;;;;5.87;90.75;99815.78;6211140;23;20053;-76
2021/09/21 01:03:23;;;;;;;0.70;0.70;;;;;;;5.88;90.66;99803.69;6210885;23;20020;-77
2021/09/21 01:05:49;;;;;;;0.82;0.82;;;;;;;5.87;90.68;99820.97;6184801;23;20023;-76
2021/09/21 01:08:15;;;;;;;1.33;1.25;;;;;;;5.89;90.96;99816.56;6160112;23;20037;-75
2021/09/21 01:10:41;;;;;;;1.20;1.20;;;;;;;5.90;90.59;99817.41;6211169;23;20027;-76
2021/09/21 01:13:07;;;;;;;0.80;0.80;;;;;;;5.91;91.06;99801.81;6184801;23;20451;-75
2021/09/21 01:15:33;;;;;;;0.57;0.57;;;;;;;5.89;90.53;99818.34;6211042;23;20023;-74
2021/09/21 01:17:59;;;;;;;0.93;0.93;;;;;;;5.90;90.61;99797.53;6211060;23;20020;-76
2021/09/21 01:20:26;;;;;;;1.02;0.88;;;;;;;5.88;91.08;99804.53;6184352;23;20055;-76
2021/09/21 01:22:52;;;;;;;0.75;0.75;;;;;;;5.90;91.19;99807.03;6211174;23;20538;-75
2021/09/21 01:25:17;;;;;;;0.52;0.52;;;;;;;5.89;90.95;99808.78;6184158;23;20025;-75
2021/09/21 01:27:43;;;;;;;0.73;0.73;;;;;;;5.89;90.60;99806.19;6211138;23;20021;-73
2021/09/21 01:30:11;;;;;;;0.47;0.47;;;;;;;5.90;91.11;99802.72;6211210;23;20091;-74
2021/09/21 01:32:37;;;;;;;2.83;1.95;;;;;;;5.86;91.06;99819.25;6184241;23;20020;-72
2021/09/21 01:35:03;;;;;;;0.50;0.50;;;;;;;5.93;90.93;99809.53;6210955;23;20075;-74
2021/09/21 01:37:30;;;;;;;0.82;0.82;;;;;;;5.94;90.64;99812.06;6184294;23;20099;-74
2021/09/21 01:39:56;;;;;;;0.80;0.80;;;;;;;5.91;90.43;99812.19;6210762;23;20016;-73
2021/09/21 01:42:22;;;;;;;0.73;0.73;;;;;;;5.94;90.59;99806.91;6210667;23;20016;-74
2021/09/21 01:44:48;;;;;;;0.95;0.95;;;;;;;5.94;90.62;99812.06;6184429;23;20136;-74
2021/09/21 01:47:15;;;;;;;1.35;1.35;;;;;;;5.93;90.59;99805.19;6184469;23;20408;-76
2021/09/21 01:52:18;;;;;;;0.77;0.77;;;;;;;5.94;90.56;99809.47;6212967;23;20020;-73
2021/09/21 01:59:55;;;;;;;0.70;0.70;;;;;;;5.96;91.19;99789.53;6213185;23;20028;-75
2021/09/21 02:02:22;;;;;;;0.65;0.65;;;;;;;5.95;90.73;99781.84;6212898;23;20036;-72
2021/09/21 02:04:48;;;;;;;1.08;1.08;;;;;;;5.94;90.92;99791.34;6213062;23;20023;-72
2021/09/21 02:07:14;;;;;;;0.80;0.80;;;;;;;5.95;90.93;99780.09;6186293;23;20522;-73
2021/09/21 02:09:40;;;;;;;0.75;0.75;;;;;;;5.96;90.68;99799.91;6185794;23;20091;-72
2021/09/21 02:12:06;;;;;;;0.82;0.82;;;;;;;5.97;91.12;99782.59;6186122;23;20017;-71
2021/09/21 02:14:32;;;;;;;0.73;0.73;;;;;;;5.98;90.84;99792.94;6212250;23;20027;-71
2021/09/21 02:16:58;;;;;;;1.75;0.70;;;;;;;5.98;90.96;99774.78;6212532;23;20020;-72
2021/09/21 02:19:24;;;;;;;1.35;1.25;;;;;;;5.98;90.83;99779.13;6185640;23;20365;-74
2021/09/21 02:21:51;;;;;;;0.82;0.82;;;;;;;5.99;90.63;99784.22;6212636;23;20028;-74
2021/09/21 02:24:20;;;;;;;0.60;0.60;;;;;;;5.98;90.84;99772.19;6212692;23;20040;-74
2021/09/21 02:26:46;;;;;;;0.57;0.57;;;;;;;5.99;91.42;99773.88;6186781;23;20530;-74
2021/09/21 02:29:12;;;;;;;0.80;0.80;;;;;;;5.99;91.14;99766.09;6212224;23;20012;-73
2021/09/21 02:31:39;;;;;;;0.75;0.75;;;;;;;5.99;90.82;99773.88;6160972;23;20099;-72
2021/09/21 02:34:04;;;;;;;1.05;1.05;;;;;;;6.03;90.38;99795.34;6212206;23;20016;-72
2021/09/21 02:36:30;;;;;;;0.68;0.68;;;;;;;6.02;90.80;99762.56;6184911;23;20039;-73
2021/09/21 02:38:56;;;;;;;0.70;0.70;;;;;;;6.01;91.12;99772.09;6185587;23;20024;-77
2021/09/21 02:41:22;;;;;;;1.02;1.02;;;;;;;6.02;90.63;99786.72;6185143;23;20059;-77
2021/09/21 02:43:48;;;;;;;0.60;0.60;;;;;;;6.01;90.89;99774.69;6213589;23;20539;-78
2021/09/21 02:46:14;;;;;;;1.33;1.30;;;;;;;6.02;90.58;99768.56;6161438;23;20017;-77
2021/09/21 02:48:40;;;;;;;0.65;0.65;;;;;;;6.02;91.08;99768.56;6185566;23;20401;-77
2021/09/21 02:51:06;;;;;;;0.55;0.55;;;;;;;6.05;90.54;99763.28;6185937;23;20464;-76
2021/09/21 02:53:33;;;;;;;0.70;0.70;;;;;;;6.02;90.84;99768.56;6212278;23;20484;-77
2021/09/21 02:55:59;;;;;;;0.70;0.70;;;;;;;6.05;90.68;99768.44;6211898;23;20020;-75
2021/09/21 02:58:25;;;;;;;0.55;0.55;;;;;;;6.04;90.72;99764.19;6211744;23;20032;-76
2021/09/21 03:00:56;;;;;;;1.13;1.13;;;;;;;6.02;90.90;99753.03;6185492;23;20048;-76
2021/09/21 03:03:24;;;;;;;1.15;1.15;;;;;;;6.06;90.99;99748.56;6211818;23;20044;-76
2021/09/21 03:06:03;;;;;;;0.95;0.95;;;;;;;6.06;90.86;99772.75;6212330;23;20372;-75
2021/09/21 03:08:33;;;;;;;0.70;0.70;;;;;;;6.07;90.69;99760.63;6211764;23;20016;-73
2021/09/21 03:11:18;;;;;;;0.70;0.70;;;;;;;6.06;91.05;99767.56;6211826;23;20094;-74
2021/09/21 03:19:04;;;;;;;0.93;0.93;;;;;;;6.08;91.23;99752.81;6185157;23;20021;-75
2021/09/21 03:21:30;;;;;;;0.75;0.75;;;;;;;6.09;91.04;99751.03;6211544;23;20020;-74
2021/09/21 03:23:56;;;;;;;0.45;0.45;;;;;;;6.07;91.32;99750.28;6211987;23;20028;-74
2021/09/21 03:26:22;;;;;;;1.30;1.30;;;;;;;6.06;91.30;99759.78;6185199;23;20021;-74
2021/09/21 03:28:48;;;;;;;1.10;1.10;;;;;;;6.08;91.44;99747.63;6211749;23;20021;-79
2021/09/21 03:31:14;;;;;;;1.35;1.35;;;;;;;6.09;91.05;99738.94;6161090;23;20159;-75
2021/09/21 03:33:40;;;;;;;0.80;0.80;;;;;;;6.09;91.28;99741.53;6211757;23;20025;-76
2021/09/21 03:36:06;;;;;;;1.10;1.10;;;;;;;6.12;91.34;99732.78;6212188;23;20104;-74
2021/09/21 03:38:32;;;;;;;0.73;0.73;;;;;;;6.13;91.36;99761.25;6185490;23;20020;-72
2021/09/21 03:40:58;;;;;;;0.95;0.95;;;;;;;6.14;91.37;99742.22;6186109;23;20061;-71
2021/09/21 03:43:24;;;;;;;0.60;0.60;;;;;;;6.16;91.01;99749.91;6212412;23;20036;-72
2021/09/21 03:45:50;;;;;;;0.82;0.82;;;;;;;6.13;91.66;99745.69;6186363;23;20025;-69
2021/09/21 03:48:16;;;;;;;1.35;1.35;;;;;;;6.19;91.02;99752.38;6185680;23;20016;-72
2021/09/21 03:50:43;;;;;;;0.88;0.88;;;;;;;6.20;91.23;99741.13;6185440;23;20020;-73
2021/09/21 03:53:09;;;;;;;0.60;0.60;;;;;;;6.22;91.43;99741.91;6184840;23;20031;-71
2021/09/21 03:55:35;;;;;;;1.00;1.00;;;;;;;6.22;91.55;99745.34;6207161;23;20021;-72
2021/09/21 03:58:01;;;;;;;0.80;0.80;;;;;;;6.21;91.59;99728.13;6207337;23;20468;-71
2021/09/21 04:00:27;;;;;;;1.65;1.55;;;;;;;6.22;91.17;99734.97;6210857;23;20103;-71
2021/09/21 04:02:52;;;;;;;0.57;0.57;;;;;;;6.23;91.71;99741.84;6210644;23;20103;-72
2021/09/21 04:05:18;;;;;;;0.82;0.82;;;;;;;6.24;91.19;99743.53;6211094;23;20016;-70
2021/09/21 04:07:48;;;;;;;0.73;0.73;;;;;;;6.22;91.30;99747.94;6210423;23;20020;-72
2021/09/21 04:10:14;;;;;;;1.10;1.10;;;;;;;6.24;91.55;99735.78;6210994;23;20112;-73
2021/09/21 04:12:40;;;;;;;0.80;0.80;;;;;;;6.22;91.73;99734.13;6210339;23;20048;-73
2021/09/21 04:15:07;;;;;;;1.20;1.20;;;;;;;6.27;91.42;99748.59;6184071;23;20024;-75
2021/09/21 04:17:33;;;;;;;1.17;1.17;;;;;;;6.26;91.30;99728.75;6210858;23;20143;-72
2021/09/21 04:19:59;;;;;;;1.02;1.02;;;;;;;6.28;91.37;99739.91;6211204;23;20027;-71
2021/09/21 04:22:27;;;;;;;0.40;0.40;;;;;;;6.31;91.25;99730.34;6184522;23;20016;-71
2021/09/21 04:24:54;;;;;;;0.70;0.70;;;;;;;6.31;91.37;99717.38;6211719;23;20066;-71
2021/09/21 04:27:20;;;;;;;0.50;0.50;;;;;;;6.32;91.28;99721.63;6211914;23;20508;-71
2021/09/21 04:30:13;;;;;;;0.60;0.60;;;;;;;6.32;91.34;99727.66;6211660;23;20013;-72
2021/09/21 04:32:50;;;;;;;1.08;1.08;;;;;;;6.33;91.20;99731.13;6173732;23;20028;-70
2021/09/21 04:35:17;;;;;;;1.35;1.35;;;;;;;6.33;91.67;99731.13;6211051;23;20408;-72
2021/09/21 04:41:01;;;;;;;2.22;1.40;;;;;;;6.25;91.36;99711.53;6147935;23;20024;-73
2021/09/21 04:43:27;;;;;;;0.80;0.80;;;;;;;6.35;91.32;99729.31;6211105;23;20047;-73
2021/09/21 04:45:53;;;;;;;1.20;1.20;;;;;;;6.32;91.06;99744.97;6185139;23;20036;-72
2021/09/21 04:48:27;;;;;;;0.70;0.70;;;;;;;6.37;91.30;99753.44;6185331;23;20012;-74
2021/09/21 04:50:54;;;;;;;1.50;1.45;;;;;;;6.35;91.47;99718.94;6212246;23;20123;-73
2021/09/21 04:53:20;;;;;;;1.30;1.30;;;;;;;6.38;91.36;99721.41;6160419;23;20463;-74
2021/09/21 04:55:46;;;;;;;1.10;1.10;;;;;;;6.40;91.34;99727.38;6210558;23;20028;-73
2021/09/21 04:58:20;;;;;;;1.55;1.45;;;;;;;6.39;91.07;99733.47;6160693;23;20032;-74
2021/09/21 05:01:26;;;;;;;1.75;1.75;;;;;;;6.42;91.12;99731.59;6167432;23;20020;-73
2021/09/21 05:04:12;;;;;;;0.75;0.75;;;;;;;6.43;91.04;99743.66;6185009;23;20099;-74
2021/09/21 05:06:38;;;;;;;1.30;1.30;;;;;;;6.44;91.00;99728.94;6212131;23;20017;-71
2021/09/21 05:09:09;;;;;;;0.80;0.80;;;;;;;6.43;91.47;99738.47;6212264;23;20024;-71
2021/09/21 05:12:22;;;;;;;0.85;0.85;;;;;;;6.45;91.25;99730.63;6212059;23;20017;-71
2021/09/21 05:14:49;;;;;;;0.77;0.77;;;;;;;6.46;91.53;99734.91;6148338;23;20039;-72
2021/09/21 05:17:16;;;;;;;2.30;0.70;;;;;;;6.48;91.38;99730.53;6185037;23;20091;-71
2021/09/21 05:19:45;;;;;;;1.00;1.00;;;;;;;6.47;91.41;99723.63;6211522;23;20013;-73
2021/09/21 05:22:37;;;;;;;3.60;1.40;;;;;;;6.32;91.75;99706.94;6164326;23;20052;-71
2021/09/21 05:28:13;;;;;;;1.00;1.00;;;;;;;6.51;91.69;99745.97;6147383;23;20024;-70
2021/09/21 05:31:16;;;;;;;0.93;0.93;;;;;;;6.52;91.40;99742.44;6186585;23;20020;-73
2021/09/21 05:33:42;;;;;;;2.35;1.60;;;;;;;6.54;91.34;99730.28;6186868;23;20822;-70
2021/09/21 05:36:08;;;;;;;1.15;1.15;;;;;;;6.56;91.51;99733.63;6213076;23;20016;-73
2021/09/21 05:39:14;;;;;;;0.80;0.80;;;;;;;6.55;91.38;99726.75;6213421;23;20051;-73
2021/09/21 05:41:43;;;;;;;1.38;1.38;;;;;;;6.56;91.44;99733.63;6210074;23;20024;-73
2021/09/21 05:44:09;;;;;;;0.88;0.88;;;;;;;6.58;91.16;99731.81;6213775;23;20025;-71
2021/09/21 05:46:35;;;;;;;1.30;1.30;;;;;;;6.57;91.28;99740.50;6187238;23;20016;-72
2021/09/21 05:49:04;;;;;;;1.45;1.45;;;;;;;6.59;91.56;99738.69;6187012;23;20020;-72
2021/09/21 05:51:30;;;;;;;1.13;1.13;;;;;;;6.60;91.50;99740.38;6161585;23;20020;-73
2021/09/21 05:53:57;;;;;;;1.85;1.75;;;;;;;6.60;90.91;99732.59;6213563;23;20032;-76
2021/09/21 05:56:23;;;;;;;0.90;0.90;;;;;;;6.62;91.22;99717.81;6161863;23;20393;-73
2021/09/21 05:58:49;;;;;;;1.65;1.58;;;;;;;6.63;91.50;99741.13;6213029;23;20020;-73
2021/09/21 06:01:15;;;;;;;0.77;0.77;;;;;;;6.61;91.48;99747.28;6186665;23;20026;-73
2021/09/21 06:03:41;;;;;;;0.65;0.65;;;;;;;6.59;91.58;99738.69;6213003;23;20020;-73
2021/09/21 06:06:07;;;;;;;0.77;0.77;;;;;;;6.64;91.28;99737.59;6212902;23;20027;-74
2021/09/21 06:09:28;;;;;;;1.55;1.55;;;;;;;6.66;91.17;99719.38;6212976;23;20087;-75
2021/09/21 06:11:54;;;;;;;1.27;1.27;;;;;;;6.66;91.13;99727.16;6183809;23;20031;-72
2021/09/21 06:14:21;;;;;;;0.80;0.80;;;;;;;6.67;90.96;99727.13;6214665;23;20104;-74
2021/09/21 06:16:50;;;;;;;1.10;1.10;;;;;;;6.67;90.91;99731.47;6213275;23;20078;-73
2021/09/21 06:19:33;;;;;;;0.65;0.65;;;;;;;6.67;91.10;99723.69;6186185;23;20017;-74
2021/09/21 06:22:15;;;;;;;1.23;1.23;;;;;;;6.66;91.40;99719.38;6192740;23;20016;-74
2021/09/21 06:24:46;;;;;;;1.40;1.40;;;;;;;6.66;91.40;99742.72;6187291;23;20027;-72
2021/09/21 06:27:12;;;;;;;0.93;0.93;;;;;;;6.66;91.40;99746.16;6212603;23;20024;-73
2021/09/21 06:29:39;;;;;;;1.13;1.13;;;;;;;6.67;91.69;99731.47;6187048;23;20044;-73
2021/09/21 06:32:05;;;;;;;1.27;1.20;;;;;;;6.66;91.65;99730.63;6185932;23;20016;-73
2021/09/21 06:34:31;;;;;;;1.15;1.15;;;;;;;6.66;91.44;99734.94;6212524;23;20020;-72
2021/09/21 06:36:58;;;;;;;0.82;0.82;;;;;;;6.67;91.92;99742.69;6185071;23;20380;-70
2021/09/21 06:39:25;;;;;;;0.57;0.57;;;;;;;6.67;92.01;99747.03;6212540;23;20119;-71
2021/09/21 06:41:54;;;;;;;1.38;1.25;;;;;;;6.69;91.56;99752.97;6211736;23;20024;-71
2021/09/21 06:44:22;;;;;;;1.42;1.42;;;;;;;6.68;91.62;99740.91;6186261;23;20482;-72
2021/09/21 06:46:49;;;;;;;1.05;1.05;;;;;;;6.67;91.82;99749.63;6212027;23;20147;-72
2021/09/21 06:49:17;;;;;;;1.80;1.70;;;;;;;6.69;91.94;99745.19;6185952;23;20025;-73
2021/09/21 06:51:43;;;;;;;1.17;1.17;;;;;;;6.71;91.47;99743.38;6185501;23;20074;-74
2021/09/21 06:54:09;;;;;;;1.40;1.40;;;;;;;6.72;91.79;99734.69;6185869;23;20024;-76
2021/09/21 06:56:35;;;;;;;0.70;0.70;;;;;;;6.70;91.67;99744.31;6214698;23;20063;-77
2021/09/21 06:59:01;;;;;;;1.58;1.50;;;;;;;6.74;91.60;99727.72;6212223;23;20021;-76
2021/09/21 07:01:28;;;;;;;1.85;1.75;;;;;;;6.76;91.18;99731.06;6185554;23;20027;-77
2021/09/21 07:03:55;;;;;;;1.02;1.02;;;;;;;6.79;91.16;99759.47;6175586;23;20040;-79
2021/09/21 07:06:20;;;;;;;1.20;1.20;;;;;;;6.78;91.27;99734.44;6181272;23;20095;-79
2021/09/21 07:08:46;;;;;;;2.30;1.23;;;;;;;6.83;91.63;99737.69;6183022;23;20559;-81
2021/09/21 07:11:13;;;;;;;1.25;1.25;;;;;;;6.81;91.30;99739.50;6183257;23;20056;-80
2021/09/21 07:13:40;;;;;;;2.30;2.20;;;;;;;6.83;91.16;99750.69;6183977;23;20104;-81
2021/09/21 07:16:07;;;;;;;1.00;1.00;;;;;;;6.86;91.26;99742.75;6210000;23;20073;-79
2021/09/21 07:18:35;;;;;;;0.98;0.98;;;;;;;6.85;90.57;99738.47;6185602;23;20020;-82
2021/09/21 07:21:01;;;;;;;1.10;1.10;;;;;;;6.89;90.82;99742.63;6185998;23;20036;-81
2021/09/21 07:23:27;;;;;;;1.33;1.33;;;;;;;6.91;90.85;99751.19;6188234;23;20016;-80
2021/09/21 07:25:53;;;;;;;1.42;1.33;;;;;;;6.91;90.52;99761.56;6221800;23;20032;-81
2021/09/21 07:28:18;;;;;;;2.33;1.65;;;;;;;6.92;90.83;99750.28;6222480;23;20016;-78
2021/09/21 07:30:45;;;;;;;1.00;0.85;;;;;;;6.90;90.75;99739.13;6190530;23;20055;-80
2021/09/21 07:33:15;;;;;;;1.17;1.17;;;;;;;6.93;90.99;99744.19;6212261;23;20017;-80
2021/09/21 07:35:41;;;;;;;2.22;2.13;;;;;;;6.91;90.73;99740.81;6187017;23;20030;-79
2021/09/21 07:38:07;;;;;;;1.35;1.35;;;;;;;6.95;91.00;99751.91;6212423;23;20470;-80
2021/09/21 07:40:35;;;;;;;1.38;1.38;;;;;;;6.93;90.78;99739.00;6214715;23;20471;-81
2021/09/21 07:43:05;;;;;;;1.27;1.27;;;;;;;6.95;90.94;99733.72;6185841;23;20025;-80
2021/09/21 07:45:32;;;;;;;1.85;1.75;;;;;;;6.95;90.82;99742.38;6211341;23;20024;-77
2021/09/21 07:47:58;;;;;;;1.13;1.13;;;;;;;6.96;90.45;99744.06;6161774;23;20460;-82
2021/09/21 07:50:26;;;;;;;1.95;1.85;;;;;;;6.97;90.73;99743.13;6211121;23;20051;-78
2021/09/21 07:52:53;;;;;;;1.40;1.30;;;;;;;6.96;90.68;99733.69;6210739;23;20021;-78
2021/09/21 07:55:19;;;;;;;1.63;1.63;;;;;;;6.96;90.82;99749.25;6211162;23;20023;-79
2021/09/21 07:57:45;;;;;;;1.80;1.70;;;;;;;6.97;90.77;99729.34;6184025;23;20024;-80
2021/09/21 08:00:12;;;;;;;0.80;0.80;;;;;;;7.00;91.13;99718.84;6160205;23;20103;-78
2021/09/21 08:02:39;;;;;;;1.50;1.38;;;;;;;7.02;91.01;99733.44;6210805;23;20027;-77
2021/09/21 08:05:05;;;;;;;1.08;1.08;;;;;;;7.01;91.13;99739.50;6209276;23;20020;-77
2021/09/21 08:07:31;;;;;;;1.27;1.27;;;;;;;7.00;91.16;99730.03;6210914;23;20017;-77
2021/09/21 08:09:59;;;;;;;0.90;0.90;;;;;;;7.02;90.79;99738.63;6188391;23;20028;-82
2021/09/21 08:12:26;;;;;;;1.13;1.13;;;;;;;7.02;90.56;99754.19;6186583;23;20020;-79
2021/09/21 08:14:53;;;;;;;1.02;1.02;;;;;;;7.03;90.94;99729.94;6211482;23;20026;-80
2021/09/21 08:17:22;;;;;;;1.75;1.67;;;;;;;7.01;90.74;99757.69;6184436;23;20024;-76
2021/09/21 08:19:49;;;;;;;0.80;0.80;;;;;;;6.99;90.83;99727.53;6185002;23;20024;-75
2021/09/21 08:22:16;;;;;;;1.33;1.33;;;;;;;7.00;91.03;99708.44;6184289;23;20021;-74
2021/09/21 08:24:44;;;;;;;1.08;1.08;;;;;;;7.02;91.08;99720.44;6182551;23;20380;-76
2021/09/21 08:27:10;;;;;;;1.70;1.60;;;;;;;7.03;91.26;99724.75;6210334;23;20408;-77
2021/09/21 08:29:36;;;;;;;0.77;0.77;;;;;;;7.03;91.04;99722.16;6209242;23;20013;-76
2021/09/21 08:32:02;;;;;;;1.55;1.55;;;;;;;7.00;90.61;99698.88;6209987;23;20120;-77
2021/09/21 08:34:28;;;;;;;0.95;0.95;;;;;;;7.02;91.21;99717.00;6181165;23;20076;-77
2021/09/21 08:36:54;;;;;;;0.73;0.73;;;;;;;7.06;91.31;99724.59;6181857;23;20456;-77
2021/09/21 08:39:21;;;;;;;0.68;0.68;;;;;;;7.04;90.66;99733.34;6210044;23;20086;-75
2021/09/21 08:41:48;;;;;;;1.77;1.67;;;;;;;7.07;90.61;99722.81;6209771;23;20020;-73
2021/09/21 08:44:15;;;;;;;0.82;0.82;;;;;;;7.05;91.13;99738.47;6210488;23;20107;-73
2021/09/21 08:46:40;;;;;;;2.10;2.00;;;;;;;7.03;90.76;99735.13;6209948;23;20415;-72
2021/09/21 08:49:07;;;;;;;1.60;1.50;;;;;;;7.05;90.99;99735.88;6210379;23;20017;-74
2021/09/21 08:51:33;;;;;;;1.35;1.35;;;;;;;7.08;90.76;99722.78;6210294;23;20024;-73
2021/09/21 08:53:59;;;;;;;1.05;1.05;;;;;;;7.08;90.84;99725.38;6209998;23;20021;-75
2021/09/21 08:56:25;;;;;;;1.63;1.50;;;;;;;7.06;90.93;99727.19;6183273;23;20020;-75
2021/09/21 08:59:10;;;;;;;4.22;1.52;;;;;;;7.12;91.04;99726.09;6158713;23;20028;-77
2021/09/21 09:01:43;;;;;;;0.60;0.60;;;;;;;7.12;90.89;99729.53;6183985;23;20016;-76
2021/09/21 09:04:10;;;;;;;1.42;1.42;;;;;;;7.05;90.44;99738.47;6159241;23;20025;-75
2021/09/21 09:06:49;;;;;;;2.80;1.60;;;;;;;7.05;90.20;99746.28;6183442;23;20028;-75
2021/09/21 09:09:22;;;;;;;1.40;1.40;;;;;;;7.08;90.49;99742.69;6210250;23;20017;-74
2021/09/21 09:11:49;;;;;;;1.00;1.00;;;;;;;7.03;90.29;99742.06;6183430;23;20024;-73
2021/09/21 09:14:20;;;;;;;1.27;1.13;;;;;;;7.09;90.60;99734.84;6210209;23;20469;-75
2021/09/21 09:16:47;;;;;;;1.00;1.00;;;;;;;7.07;89.86;99728.88;6209755;23;20052;-74
2021/09/21 09:19:13;;;;;;;1.17;1.17;;;;;;;7.10;90.75;99726.13;6183547;23;20021;-75
2021/09/21 09:21:41;;;;;;;0.70;0.70;;;;;;;7.10;90.47;99741.72;6183251;23;20041;-76
2021/09/21 09:24:09;;;;;;;2.05;1.95;;;;;;;7.09;90.10;99745.25;6209525;23;20556;-75
2021/09/21 09:26:37;;;;;;;1.35;1.35;;;;;;;7.09;90.21;99731.41;6209689;23;20361;-75
2021/09/21 09:29:06;;;;;;;1.48;1.48;;;;;;;7.12;90.37;99741.66;6182419;23;20024;-75
2021/09/21 09:31:34;;;;;;;0.85;0.85;;;;;;;7.07;90.10;99741.00;6210028;23;20166;-75
2021/09/21 09:34:13;;;;;;;1.10;1.10;;;;;;;7.08;90.42;99748.72;6183775;23;20023;-74
2021/09/21 09:36:43;;;;;;;1.00;1.00;;;;;;;7.11;90.18;99745.16;6210128;23;20020;-75
2021/09/21 09:39:09;;;;;;;0.68;0.68;;;;;;;7.10;90.34;99730.50;6183398;23;20112;-74
2021/09/21 09:41:39;;;;;;;1.17;1.17;;;;;;;7.10;90.38;99736.53;6210099;23;20017;-73
2021/09/21 09:44:30;;;;;;;1.40;1.40;;;;;;;7.10;90.49;99746.09;6183853;23;20056;-74
2021/09/21 09:47:09;;;;;;;0.60;0.60;;;;;;;7.07;90.72;99747.03;6174998;23;20086;-73
2021/09/21 09:49:37;;;;;;;1.38;1.25;;;;;;;7.06;91.20;99750.56;6185650;23;20027;-75
2021/09/21 09:52:05;;;;;;;0.80;0.80;;;;;;;7.06;90.91;99747.97;6158451;23;20023;-75
2021/09/21 09:54:41;;;;;;;1.17;1.17;;;;;;;7.04;90.89;99754.09;6183444;23;20020;-76
2021/09/21 09:57:17;;;;;;;0.85;0.85;;;;;;;7.06;91.00;99757.50;6164107;23;20039;-72
2021/09/21 09:59:43;;;;;;;1.23;1.23;;;;;;;7.05;91.18;99769.63;6182254;23;20026;-73
2021/09/21 10:02:08;;;;;;;1.25;1.25;;;;;;;7.04;90.82;99752.34;6207422;23;20024;-73
2021/09/21 10:04:34;;;;;;;0.82;0.82;;;;;;;7.01;90.95;99751.63;6179746;23;20139;-73
2021/09/21 10:07:00;;;;;;;0.90;0.90;;;;;;;7.01;90.73;99757.69;6179822;23;20086;-72
2021/09/21 10:09:26;;;;;;;2.10;2.00;;;;;;;7.03;91.21;99745.50;6207264;23;20020;-72
2021/09/21 10:11:58;;;;;;;1.33;1.33;;;;;;;7.02;90.81;99755.94;6207385;23;20067;-72
2021/09/21 10:14:24;;;;;;;1.15;1.15;;;;;;;7.01;90.91;99749.91;6157774;23;20042;-74
2021/09/21 10:17:00;;;;;;;1.13;1.13;;;;;;;7.02;90.72;99758.53;6184933;23;20478;-72
2021/09/21 10:19:26;;;;;;;2.38;2.17;;;;;;;7.02;90.76;99763.72;6211253;23;20465;-75
2021/09/21 10:21:53;;;;;;;1.42;1.42;;;;;;;7.02;90.71;99766.31;6209902;23;20420;-73
2021/09/21 10:24:40;;;;;;;1.30;1.27;;;;;;;7.03;90.68;99779.25;6210058;23;20360;-73
2021/09/21 10:27:07;;;;;;;1.38;1.38;;;;;;;7.01;90.71;99757.69;6158997;23;20021;-73
2021/09/21 10:29:37;;;;;;;2.05;1.95;;;;;;;6.96;90.63;99767.41;6211497;23;20017;-76
2021/09/21 10:32:12;;;;;;;1.17;0.90;;;;;;;7.00;90.93;99766.38;6185302;23;20021;-74
2021/09/21 10:34:43;;;;;;;2.60;2.50;;;;;;;7.01;90.61;99760.28;6212182;23;20448;-75
2021/09/21 10:37:09;;;;;;;1.48;1.48;;;;;;;7.03;90.96;99766.25;6184856;23;20078;-74
2021/09/21 10:39:35;;;;;;;3.67;2.10;;;;;;;7.03;90.78;99775.78;6214735;23;20456;-74
2021/09/21 10:42:11;;;;;;;3.15;2.15;;;;;;;7.02;90.93;99789.66;6213118;23;20048;-74
2021/09/21 10:45:07;;;;;;;1.27;1.27;;;;;;;7.01;90.84;99768.06;6212417;23;20095;-75
2021/09/21 10:47:39;;;;;;;2.20;2.10;;;;;;;6.96;90.33;99788.19;6193176;23;20020;-73
2021/09/21 10:50:16;;;;;;;2.58;2.47;;;;;;;6.96;90.54;99770.03;6185413;23;20028;-75
2021/09/21 10:52:42;;;;;;;1.70;1.65;;;;;;;6.98;90.32;99769.94;6185761;23;20024;-75
2021/09/21 10:55:12;;;;;;;0.82;0.82;;;;;;;7.01;90.67;99783.63;6161552;23;20027;-75
2021/09/21 10:57:43;;;;;;;1.40;1.30;;;;;;;7.00;90.67;99771.56;6212255;23;20051;-74
2021/09/21 11:00:14;;;;;;;3.22;2.50;;;;;;;7.04;91.05;99773.13;6114337;23;20028;-73
2021/09/21 11:02:42;;;;;;;1.45;1.42;;;;;;;7.01;90.64;99768.06;6213929;23;20048;-74
2021/09/21 11:05:16;;;;;;;1.13;1.13;;;;;;;7.01;90.39;99777.59;6187180;23;20016;-76
2021/09/21 11:07:54;;;;;;;1.60;1.60;;;;;;;7.03;89.92;99766.25;6213233;23;20017;-73
2021/09/21 11:10:20;;;;;;;1.15;1.15;;;;;;;7.07;90.49;99772.13;6212579;23;20099;-74
2021/09/21 11:12:50;;;;;;;1.27;1.27;;;;;;;7.06;90.33;99771.31;6160745;23;20044;-74
2021/09/21 11:15:18;;;;;;;1.25;1.25;;;;;;;7.05;90.63;99772.22;6212039;23;20078;-74
2021/09/21 11:17:44;;;;;;;1.17;1.17;;;;;;;7.01;90.34;99757.69;6180711;23;20044;-73
2021/09/21 11:20:10;;;;;;;1.60;1.58;;;;;;;7.02;90.08;99763.72;6184689;23;20021;-73
2021/09/21 11:22:37;;;;;;;1.33;1.33;;;;;;;7.04;89.70;99767.94;6160863;23;20028;-74
2021/09/21 11:25:05;;;;;;;2.45;1.15;;;;;;;7.06;89.54;99779.09;6160036;23;20044;-74
2021/09/21 11:27:33;;;;;;;1.20;1.20;;;;;;;7.06;89.90;99773.91;6211755;23;20071;-76
2021/09/21 11:30:13;;;;;;;1.60;1.50;;;;;;;7.06;89.80;99760.09;6191006;23;20016;-75
2021/09/21 11:36:11;;;;;;;0.80;0.80;;;;;;;7.09;89.74;99771.19;6184818;23;20055;-75
2021/09/21 11:38:39;;;;;;;1.13;1.13;;;;;;;7.09;90.17;99771.19;6211798;23;20023;-74
2021/09/21 11:41:06;;;;;;;1.05;1.05;;;;;;;7.06;90.26;99767.88;6183972;23;20040;-74
2021/09/21 11:43:33;;;;;;;1.02;1.02;;;;;;;7.03;90.51;99755.88;6184477;23;20095;-71
2021/09/21 11:45:59;;;;;;;1.58;1.58;;;;;;;7.05;90.30;99761.84;6136001;23;20024;-73
2021/09/21 11:48:25;;;;;;;1.25;1.25;;;;;;;7.04;90.09;99757.56;6185556;23;20510;-75
2021/09/21 11:50:52;;;;;;;1.33;1.33;;;;;;;7.04;90.13;99762.75;6160017;23;20028;-75
2021/09/21 11:53:19;;;;;;;0.93;0.93;;;;;;;7.05;90.07;99748.00;6185223;23;20483;-74
2021/09/21 11:55:47;;;;;;;1.50;1.50;;;;;;;7.04;90.27;99749.75;6210222;23;20029;-74
2021/09/21 11:58:14;;;;;;;0.88;0.88;;;;;;;7.08;90.20;99751.31;6183568;23;20111;-74
2021/09/21 12:00:48;;;;;;;0.90;0.90;;;;;;;7.05;89.77;99748.00;6211367;23;20024;-75
2021/09/21 12:03:18;;;;;;;0.70;0.70;;;;;;;7.09;90.22;99744.38;6211660;23;20016;-74
2021/09/21 12:05:46;;;;;;;1.10;0.80;;;;;;;7.09;90.42;99750.44;6185267;23;20051;-75
2021/09/21 12:08:25;;;;;;;0.90;0.90;;;;;;;7.09;90.43;99747.84;6211115;23;20272;-76
2021/09/21 12:10:52;;;;;;;1.08;1.08;;;;;;;7.13;90.31;99753.75;6185048;23;20184;-75
2021/09/21 12:13:20;;;;;;;1.55;1.55;;;;;;;7.09;89.93;99744.38;6213313;23;20020;-74
2021/09/21 12:16:04;;;;;;;1.52;1.42;;;;;;;7.09;90.34;99745.25;6177288;23;20099;-77
2021/09/21 12:18:31;;;;;;;;;;;;;;;7.10;90.22;99746.91;6185348;23;20020;-77
2021/09/21 12:20:59;;;;;;;0.77;0.77;;;;;;;7.09;90.07;99755.63;6182755;23;19941;-77
2021/09/21 12:23:27;;;;;;;1.00;1.00;;;;;;;7.10;89.62;99746.09;6209373;23;20020;-76
2021/09/21 12:25:54;;;;;;;1.65;1.10;;;;;;;7.12;90.34;99734.72;6183880;23;20039;-78
2021/09/21 12:28:25;;;;;;;0.90;0.90;;;;;;;7.09;90.04;99745.25;6187092;23;20027;-78
2021/09/21 12:30:51;;;;;;;0.98;0.98;;;;;;;7.09;89.91;99754.78;6183859;23;20020;-79
2021/09/21 12:33:17;;;;;;;1.48;1.42;;;;;;;7.03;89.74;99755.88;6209835;23;20855;-78
2021/09/21 12:35:49;;;;;;;0.93;0.93;;;;;;;7.02;89.25;99748.16;6183880;23;20017;-80
2021/09/21 12:38:24;;;;;;;0.98;0.98;;;;;;;7.03;89.73;99755.88;6159159;23;20092;-80
2021/09/21 12:40:52;;;;;;;1.40;1.25;;;;;;;6.99;89.92;99748.28;6209961;23;20044;-79
2021/09/21 12:43:42;;;;;;;1.38;1.38;;;;;;;7.00;90.31;99750.78;6183280;23;20105;-77
2021/09/21 12:46:10;;;;;;;0.70;0.70;;;;;;;7.00;90.31;99749.97;6158714;23;20027;-77
2021/09/21 12:48:38;;;;;;;1.10;1.10;;;;;;;7.00;90.17;99749.97;6183439;23;20095;-77
2021/09/21 12:51:06;;;;;;;1.35;1.35;;;;;;;6.95;90.19;99749.31;6183206;23;20016;-78
2021/09/21 12:53:32;;;;;;;1.15;1.15;;;;;;;6.93;90.38;99749.38;6183728;23;20055;-76
2021/09/21 12:55:59;;;;;;;0.90;0.90;;;;;;;6.99;90.22;99748.28;6209827;23;20016;-77